createdAt,value
2022-08-04T00:02:24.109Z,101464.69
2022-08-04T00:05:49.011Z,101474.63
2022-08-04T00:08:58.213Z,101476.19
2022-08-04T00:12:03.123Z,101482.63
2022-08-04T00:15:10.490Z,101481.91
2022-08-04T00:18:23.139Z,101464.81
2022-08-04T00:21:28.045Z,101473.03
2022-08-04T00:24:33.910Z,101465.03
2022-08-04T00:27:38.598Z,101460.06
2022-08-04T00:30:42.905Z,101446.25
2022-08-04T00:33:48.599Z,101443.72
2022-08-04T00:36:54.359Z,101441.91
2022-08-04T00:39:59.031Z,101436.06
2022-08-04T00:43:09.499Z,101428.06
2022-08-04T00:46:40.097Z,101427.34
2022-08-04T00:49:59.936Z,101428.34
2022-08-04T00:53:13.207Z,101432.94
2022-08-04T00:56:48.154Z,101434.66
2022-08-04T00:59:55.529Z,101434.66
2022-08-04T01:03:11.248Z,101430.78
2022-08-04T01:06:18.318Z,101428.13
2022-08-04T01:09:49.856Z,101433.31
2022-08-04T01:12:54.434Z,101432.47
2022-08-04T01:16:05.736Z,101427.00
2022-08-04T01:19:24.655Z,101427.00
2022-08-04T01:22:31.933Z,101420.59
2022-08-04T01:25:58.039Z,101423.97
2022-08-04T01:29:06.320Z,101423.50
2022-08-04T01:32:19.553Z,101414.75
2022-08-04T01:35:47.671Z,101413.31
2022-08-04T01:38:54.113Z,101405.31
2022-08-04T01:42:00.073Z,101401.19
2022-08-04T01:45:07.197Z,101402.91
2022-08-04T01:48:12.841Z,101393.94
2022-08-04T01:51:17.541Z,101392.94
2022-08-04T01:54:21.926Z,101384.69
2022-08-04T01:57:38.830Z,101385.94
2022-08-04T02:00:55.941Z,101383.38
2022-08-04T02:04:21.405Z,101381.09
2022-08-04T02:07:37.421Z,101383.28
2022-08-04T02:10:44.554Z,101369.06
2022-08-04T02:14:12.651Z,101364.84
2022-08-04T02:17:44.553Z,101364.25
2022-08-04T02:20:54.381Z,101362.09
2022-08-04T02:24:05.758Z,101363.88
2022-08-04T02:27:11.485Z,101363.50
2022-08-04T02:30:18.446Z,101357.09
2022-08-04T02:33:36.534Z,101355.03
2022-08-04T02:36:41.747Z,101342.28
2022-08-04T02:39:48.836Z,101345.81
2022-08-04T02:42:57.509Z,101348.72
2022-08-04T02:46:02.467Z,101342.66
2022-08-04T02:49:09.471Z,101332.16
2022-08-04T02:52:14.754Z,101343.06
2022-08-04T02:55:19.694Z,101339.66
2022-08-04T02:58:24.948Z,101337.97
2022-08-04T03:01:29.825Z,101330.44
2022-08-04T03:04:37.441Z,101336.97
2022-08-04T03:07:53.796Z,101338.91
2022-08-04T03:11:05.739Z,101333.06
2022-08-04T03:14:46.265Z,101328.44
2022-08-04T03:18:18.362Z,101323.69
2022-08-04T03:21:41.536Z,101318.59
2022-08-04T03:25:23.563Z,101317.00
2022-08-04T03:28:56.189Z,101321.75
2022-08-04T03:32:15.466Z,101309.94
2022-08-04T03:35:44.816Z,101306.06
2022-08-04T03:39:20.076Z,101293.50
2022-08-04T03:42:27.821Z,101286.78
2022-08-04T03:45:42.893Z,101282.19
2022-08-04T03:49:18.091Z,101270.78
2022-08-04T03:52:57.433Z,101272.47
2022-08-04T03:57:03.045Z,101277.88
2022-08-04T04:00:09.193Z,101280.59
2022-08-04T04:03:28.201Z,101279.31
2022-08-04T04:07:04.184Z,101285.50
2022-08-04T04:10:32.791Z,101291.66
2022-08-04T04:13:55.658Z,101288.47
2022-08-04T04:17:36.909Z,101285.31
2022-08-04T04:21:17.385Z,101282.25
2022-08-04T04:24:46.229Z,101285.13
2022-08-04T04:28:45.305Z,101278.53
2022-08-04T04:31:59.460Z,101276.06
2022-08-04T04:35:08.809Z,101280.56
2022-08-04T04:38:46.971Z,101267.16
2022-08-04T04:42:03.150Z,101264.81
2022-08-04T04:45:11.871Z,101255.69
2022-08-04T04:48:31.541Z,101258.94
2022-08-04T04:51:52.803Z,101255.31
2022-08-04T04:55:15.218Z,101258.41
2022-08-04T04:58:20.117Z,101241.88
2022-08-04T05:01:48.261Z,101244.38
2022-08-04T05:05:20.678Z,101232.63
2022-08-04T05:09:12.291Z,101234.91
2022-08-04T05:14:22.847Z,101229.00
2022-08-04T05:16:34.993Z,101237.44
2022-08-04T05:20:06.205Z,101229.31
2022-08-04T05:23:17.232Z,101236.50
2022-08-04T05:26:26.098Z,101230.16
2022-08-04T05:29:34.496Z,101235.22
2022-08-04T05:33:04.122Z,101224.00
2022-08-04T05:36:39.487Z,101231.00
2022-08-04T05:39:58.145Z,101232.84
2022-08-04T05:43:02.496Z,101217.09
2022-08-04T05:46:07.334Z,101211.38
2022-08-04T05:49:12.705Z,101210.56
2022-08-04T05:52:24.666Z,101197.31
2022-08-04T05:55:56.608Z,101197.31
2022-08-04T05:58:55.399Z,101192.94
2022-08-04T06:02:01.446Z,101203.50
2022-08-04T06:05:07.730Z,101210.13
2022-08-04T06:08:13.951Z,101223.78
2022-08-04T06:11:19.167Z,101216.88
2022-08-04T06:14:24.078Z,101221.25
2022-08-04T06:18:35.333Z,101214.75
2022-08-04T06:21:02.622Z,101213.09
2022-08-04T06:24:13.122Z,101211.09
2022-08-04T06:27:17.538Z,101205.88
2022-08-04T06:30:26.231Z,101211.50
2022-08-04T06:33:54.649Z,101206.84
2022-08-04T06:36:59.602Z,101214.72
2022-08-04T06:40:31.569Z,101219.81
2022-08-04T06:43:29.859Z,101225.47
2022-08-04T06:46:41.693Z,101226.84
2022-08-04T06:51:28.203Z,101226.56
2022-08-04T06:53:13.378Z,101219.19
2022-08-04T06:56:20.161Z,101196.06
2022-08-04T06:59:25.883Z,101178.91
2022-08-04T07:02:34.558Z,101195.06
2022-08-04T07:05:40.246Z,101190.09
2022-08-04T07:08:44.586Z,101172.88
2022-08-04T07:11:49.374Z,101149.78
2022-08-04T07:14:53.745Z,101158.44
2022-08-04T07:18:00.342Z,101162.56
2022-08-04T07:21:05.394Z,101140.19
2022-08-04T07:24:09.610Z,101133.91
2022-08-04T07:27:13.625Z,101143.09
2022-08-04T07:30:21.797Z,101140.41
2022-08-04T07:33:29.802Z,101138.09
2022-08-04T07:36:50.007Z,101124.06
2022-08-04T07:39:55.461Z,101111.88
2022-08-04T07:43:00.027Z,101121.22
2022-08-04T07:46:04.988Z,101089.75
2022-08-04T07:49:09.718Z,101105.53
2022-08-04T07:52:14.282Z,101098.47
2022-08-04T07:55:20.140Z,101090.28
2022-08-04T07:58:26.540Z,101094.56
2022-08-04T08:01:36.369Z,101104.97
2022-08-04T08:04:40.465Z,101123.09
2022-08-04T08:07:50.489Z,101115.91
2022-08-04T08:10:59.074Z,101125.94
2022-08-04T08:14:03.786Z,101116.25
2022-08-04T08:17:08.257Z,101102.84
2022-08-04T08:20:12.683Z,101092.94
2022-08-04T08:23:35.454Z,101112.78
2022-08-04T08:26:41.395Z,101089.13
2022-08-04T08:29:45.573Z,101107.97
2022-08-04T08:32:50.089Z,101079.44
2022-08-04T08:36:15.010Z,101079.97
2022-08-04T08:39:24.886Z,101101.13
2022-08-04T08:42:36.499Z,101092.19
2022-08-04T08:45:48.964Z,101101.94
2022-08-04T08:49:10.719Z,101094.19
2022-08-04T08:53:02.564Z,101103.84
2022-08-04T08:56:16.786Z,101077.94
2022-08-04T08:59:56.306Z,101096.25
2022-08-04T09:03:15.251Z,101077.25
2022-08-04T09:06:22.437Z,101096.59
2022-08-04T09:09:38.532Z,101087.34
2022-08-04T09:12:52.146Z,101089.34
2022-08-04T09:16:15.473Z,101073.53
2022-08-04T09:19:37.694Z,101036.59
2022-08-04T09:22:50.842Z,101036.25
2022-08-04T09:26:11.302Z,101051.34
2022-08-04T09:29:34.614Z,101093.88
2022-08-04T09:32:38.867Z,101122.94
2022-08-04T09:35:46.247Z,101101.78
2022-08-04T09:39:15.529Z,101031.78
2022-08-04T09:42:36.046Z,101061.16
2022-08-04T09:45:50.596Z,101066.84
2022-08-04T09:49:10.685Z,101018.50
2022-08-04T09:52:32.593Z,100985.53
2022-08-04T09:56:01.111Z,100952.38
2022-08-04T09:59:11.658Z,100985.41
2022-08-04T10:02:21.820Z,100999.88
2022-08-04T10:05:39.924Z,100955.75
2022-08-04T10:08:57.150Z,101026.09
2022-08-04T10:12:49.574Z,100982.00
2022-08-04T10:16:31.472Z,100862.50
2022-08-04T10:19:38.712Z,100844.81
2022-08-04T10:23:12.984Z,100838.28
2022-08-04T10:26:56.869Z,100813.91
2022-08-04T10:30:11.874Z,100812.13
2022-08-04T10:33:24.495Z,100820.22
2022-08-04T10:36:37.376Z,100821.66
2022-08-04T10:40:27.411Z,100796.53
2022-08-04T10:44:05.131Z,100790.09
2022-08-04T10:47:16.301Z,100795.19
2022-08-04T10:50:21.534Z,100783.69
2022-08-04T10:53:26.822Z,100770.91
2022-08-04T10:56:41.913Z,100794.66
2022-08-04T10:59:53.079Z,100790.09
2022-08-04T11:03:15.660Z,100793.91
2022-08-04T11:06:20.878Z,100779.41
2022-08-04T11:09:25.708Z,100779.84
2022-08-04T11:12:31.227Z,100790.59
2022-08-04T11:15:46.408Z,100790.03
2022-08-04T11:19:08.852Z,100800.66
2022-08-04T11:22:27.462Z,100820.59
2022-08-04T11:25:51.995Z,100783.78
2022-08-04T11:29:17.878Z,100775.94
2022-08-04T11:32:49.440Z,100784.34
2022-08-04T11:36:08.409Z,100789.88
2022-08-04T11:39:30.613Z,100828.06
2022-08-04T11:42:52.821Z,100840.25
2022-08-04T11:46:01.755Z,100848.63
2022-08-04T11:49:15.300Z,100869.91
2022-08-04T11:52:20.123Z,100835.09
2022-08-04T11:55:27.058Z,100821.81
2022-08-04T11:58:32.430Z,100818.69
2022-08-04T12:02:10.640Z,100805.38
2022-08-04T12:05:23.424Z,100801.88
2022-08-04T12:09:01.266Z,100832.66
2022-08-04T12:12:28.042Z,100818.16
2022-08-04T12:16:01.868Z,100785.56
2022-08-04T12:19:31.154Z,100764.41
2022-08-04T12:22:50.733Z,100758.88
2022-08-04T12:26:00.371Z,100735.44
2022-08-04T12:29:10.877Z,100738.31
2022-08-04T12:33:03.909Z,100741.34
2022-08-04T12:36:27.648Z,100733.31
2022-08-04T12:39:33.234Z,100748.25
2022-08-04T12:42:55.867Z,100742.09
2022-08-04T12:46:08.880Z,100736.97
2022-08-04T12:49:15.641Z,100737.63
2022-08-04T12:52:24.728Z,100732.22
2022-08-04T12:55:35.506Z,100742.06
2022-08-04T12:58:49.339Z,100714.38
2022-08-04T13:02:10.155Z,100721.84
2022-08-04T13:05:17.111Z,100723.56
2022-08-04T13:08:22.975Z,100721.22
2022-08-04T13:11:27.171Z,100714.38
2022-08-04T13:14:38.289Z,100717.63
2022-08-04T13:17:57.130Z,100733.41
2022-08-04T13:21:20.924Z,100745.81
2022-08-04T13:24:32.154Z,100774.19
2022-08-04T13:27:43.522Z,100778.75
2022-08-04T13:30:53.059Z,100787.81
2022-08-04T13:34:05.362Z,100817.09
2022-08-04T13:37:11.493Z,100823.50
2022-08-04T13:40:30.810Z,100822.47
2022-08-04T13:44:16.068Z,100816.22
2022-08-04T13:47:19.150Z,100816.88
2022-08-04T13:50:29.627Z,100816.34
2022-08-04T13:53:35.394Z,100806.63
2022-08-04T13:56:44.737Z,100806.22
2022-08-04T13:59:57.333Z,100800.66
2022-08-04T14:03:23.722Z,100799.72
2022-08-04T14:06:34.807Z,100817.06
2022-08-04T14:09:39.746Z,100818.41
2022-08-04T14:12:48.352Z,100814.50
2022-08-04T14:16:02.262Z,100792.22
2022-08-04T14:19:08.266Z,100785.53
2022-08-04T14:22:29.175Z,100785.72
2022-08-04T14:25:35.645Z,100783.03
2022-08-04T14:29:27.844Z,100778.84
2022-08-04T14:32:14.602Z,100806.63
2022-08-04T14:35:19.517Z,100799.47
2022-08-04T14:39:00.290Z,100807.72
2022-08-04T14:42:05.611Z,100811.06
2022-08-04T14:45:10.269Z,100827.41
2022-08-04T14:48:17.541Z,100820.63
2022-08-04T14:51:26.342Z,100838.47
2022-08-04T14:54:41.154Z,100851.38
2022-08-04T14:58:35.263Z,100862.53
2022-08-04T15:01:12.885Z,100880.47
2022-08-04T15:04:18.426Z,100898.41
2022-08-04T15:07:22.543Z,100902.00
2022-08-04T15:10:28.098Z,100904.94
2022-08-04T15:13:32.645Z,100929.38
2022-08-04T15:16:36.643Z,100922.78
2022-08-04T15:19:59.084Z,100940.56
2022-08-04T15:23:08.614Z,100945.03
2022-08-04T15:26:43.077Z,100971.31
2022-08-04T15:29:59.158Z,101001.63
2022-08-04T15:33:06.312Z,101013.75
2022-08-04T15:36:15.404Z,101013.75
2022-08-04T15:39:33.685Z,101015.75
2022-08-04T15:42:46.806Z,101049.47
2022-08-04T15:46:41.050Z,101071.75
2022-08-04T15:49:24.101Z,101110.50
2022-08-04T15:52:28.800Z,101162.69
2022-08-04T15:55:41.609Z,101192.31
2022-08-04T15:58:54.944Z,101219.09
2022-08-04T16:02:31.655Z,101201.78
2022-08-04T16:05:37.091Z,101200.41
2022-08-04T16:08:57.692Z,101218.19
2022-08-04T16:12:02.614Z,101223.31
2022-08-04T16:15:39.623Z,101210.66
2022-08-04T16:18:44.585Z,101199.25
2022-08-04T16:22:00.192Z,101210.94
2022-08-04T16:25:05.751Z,101226.75
2022-08-04T16:28:37.671Z,101231.13
2022-08-04T16:31:41.762Z,101220.84
2022-08-04T16:35:01.409Z,101232.16
2022-08-04T16:38:14.499Z,101274.09
2022-08-04T16:41:42.061Z,101259.16
2022-08-04T16:44:58.390Z,101261.88
2022-08-04T16:48:07.830Z,101254.03
2022-08-04T16:51:14.510Z,101239.72
2022-08-04T16:54:19.791Z,101228.78
2022-08-04T16:57:24.015Z,101243.41
2022-08-04T17:00:34.955Z,101240.06
2022-08-04T17:03:43.652Z,101241.75
2022-08-04T17:07:05.949Z,101231.63
2022-08-04T17:10:09.958Z,101205.53
2022-08-04T17:14:02.636Z,101188.63
2022-08-04T17:16:49.748Z,101168.28
2022-08-04T17:19:54.020Z,101160.50
2022-08-04T17:24:13.339Z,101160.44
2022-08-04T17:26:53.802Z,101152.50
2022-08-04T17:29:58.810Z,101144.69
2022-08-04T17:33:03.207Z,101147.50
2022-08-04T17:36:12.633Z,101135.97
2022-08-04T17:39:21.504Z,101137.41
2022-08-04T17:42:30.195Z,101136.31
2022-08-04T17:49:01.894Z,101119.13
2022-08-04T17:52:10.823Z,101108.09
2022-08-04T17:55:25.569Z,101114.75
2022-08-04T17:58:31.461Z,101113.75
2022-08-04T18:01:52.110Z,101113.06
2022-08-04T18:05:08.011Z,101112.66
2022-08-04T18:08:39.659Z,101130.16
2022-08-04T18:11:42.196Z,101127.63
2022-08-04T18:14:49.042Z,101121.97
2022-08-04T18:18:20.900Z,101129.03
2022-08-04T18:21:17.987Z,101115.22
2022-08-04T18:24:22.070Z,101121.75
2022-08-04T18:27:53.802Z,101119.22
2022-08-04T18:30:57.763Z,101071.88
2022-08-04T18:34:02.472Z,101072.00
2022-08-04T18:38:03.202Z,101086.69
2022-08-04T18:40:41.915Z,101097.25
2022-08-04T18:43:56.712Z,101119.78
2022-08-04T18:47:22.362Z,101128.09
2022-08-04T18:50:59.424Z,101136.44
2022-08-04T18:53:55.087Z,101145.31
2022-08-04T18:57:24.833Z,101163.22
2022-08-04T19:00:27.663Z,101189.97
2022-08-04T19:03:33.083Z,101198.56
2022-08-04T19:06:38.081Z,101219.53
2022-08-04T19:09:52.044Z,101231.25
2022-08-04T19:12:59.575Z,101248.97
2022-08-04T19:16:04.676Z,101271.03
2022-08-04T19:19:21.019Z,101277.25
2022-08-04T19:24:11.285Z,101294.94
2022-08-04T19:26:16.576Z,101299.66
2022-08-04T19:29:38.106Z,101309.22
2022-08-04T19:32:46.054Z,101315.38
2022-08-04T19:35:52.905Z,101321.50
2022-08-04T19:38:58.748Z,101332.75
2022-08-04T19:42:04.433Z,101332.56
2022-08-04T19:45:15.771Z,101341.94
2022-08-04T19:48:20.505Z,101352.31
2022-08-04T19:51:24.979Z,101359.88
2022-08-04T19:54:32.505Z,101369.69
2022-08-04T19:57:38.008Z,101378.81
2022-08-04T20:00:51.315Z,101373.56
2022-08-04T20:04:10.408Z,101383.19
2022-08-04T20:07:15.511Z,101388.38
2022-08-04T20:10:23.841Z,101370.44
2022-08-04T20:13:30.877Z,101361.31
2022-08-04T20:16:42.046Z,101372.66
2022-08-04T20:19:51.057Z,101375.59
2022-08-04T20:22:55.894Z,101371.47
2022-08-04T20:26:01.493Z,101365.41
2022-08-04T20:29:05.796Z,101376.59
2022-08-04T20:32:11.879Z,101385.56
2022-08-04T20:35:25.732Z,101401.56
2022-08-04T20:38:33.388Z,101410.81
2022-08-04T20:41:38.704Z,101405.47
2022-08-04T20:44:49.293Z,101408.84
2022-08-04T20:47:54.423Z,101409.09
2022-08-04T20:51:00.222Z,101406.31
2022-08-04T20:54:16.728Z,101411.06
2022-08-04T20:57:48.614Z,101416.41
2022-08-04T21:00:53.188Z,101395.56
2022-08-04T21:04:27.539Z,101394.13
2022-08-04T21:07:36.344Z,101397.16
2022-08-04T21:10:48.374Z,101384.78
2022-08-04T21:13:52.996Z,101396.56
2022-08-04T21:16:58.573Z,101398.91
2022-08-04T21:20:03.931Z,101396.84
2022-08-04T21:23:08.770Z,101382.28
2022-08-04T21:26:21.493Z,101382.69
2022-08-04T21:29:35.118Z,101384.72
2022-08-04T21:32:39.988Z,101373.56
2022-08-04T21:35:44.349Z,101376.72
2022-08-04T21:38:51.279Z,101377.47
2022-08-04T21:42:28.650Z,101373.09
2022-08-04T21:45:20.956Z,101366.69
2022-08-04T21:48:27.660Z,101375.06
2022-08-04T21:51:57.824Z,101368.25
2022-08-04T21:54:59.443Z,101364.16
2022-08-04T21:58:07.529Z,101350.84
2022-08-04T22:04:36.994Z,101323.47
2022-08-04T22:07:50.556Z,101313.56
2022-08-04T22:10:55.771Z,101315.50
2022-08-04T22:14:10.578Z,101294.91
2022-08-04T22:17:18.193Z,101312.06
2022-08-04T22:20:27.788Z,101322.47
2022-08-04T22:23:45.213Z,101336.13
2022-08-04T22:26:51.073Z,101328.50
2022-08-04T22:29:57.620Z,101314.91
2022-08-04T22:33:02.612Z,101310.31
2022-08-04T22:36:07.136Z,101319.72
2022-08-04T22:39:13.191Z,101329.41
2022-08-04T22:42:17.678Z,101327.44
2022-08-04T22:45:28.589Z,101309.69
2022-08-04T22:48:35.607Z,101313.88
2022-08-04T22:51:39.975Z,101317.97
2022-08-04T22:54:52.589Z,101315.19
2022-08-04T22:58:04.528Z,101302.47
2022-08-04T23:01:10.405Z,101306.56
2022-08-04T23:04:15.347Z,101319.09
2022-08-04T23:07:24.104Z,101358.13
2022-08-04T23:10:44.872Z,101372.38
2022-08-04T23:13:49.457Z,101368.66
2022-08-04T23:16:53.984Z,101377.13
2022-08-04T23:19:59.935Z,101368.31
2022-08-04T23:23:14.776Z,101329.00
2022-08-04T23:26:19.391Z,101344.13
2022-08-04T23:29:53.046Z,101358.03
2022-08-04T23:32:55.956Z,101353.75
2022-08-04T23:36:00.828Z,101358.25
2022-08-04T23:39:06.348Z,101365.50
2022-08-04T23:42:11.203Z,101350.38
2022-08-04T23:46:05.151Z,101357.97
2022-08-04T23:48:49.643Z,101363.00
2022-08-04T23:51:54.277Z,101370.25
2022-08-04T23:54:59.392Z,101377.00
2022-08-04T23:58:16.582Z,101385.84
